Citronelle, AL (36522)

4:12 AM CDT on July 31, 2014 (GMT -0500)
The Legends At Magnolia Grove (KALMOBIL7) Elev 171 ft | 30.74 °N, 88.20 °W | Change Station

Current weather conditions updated 12 seconds ago

Clear
Clear
62.2 °F
Feels Like 62.2 °F
N
0.0
Wind Variable Wind from NW
Gusts 0.0 mph

Today is forecast to be Warmer than yesterday.

Today
High -- | Low -- °F
--% Chance of Precip.
Yesterday
High -- | Low -- °F
Precip. -- in
6:09 AM 7:48 PM
Waxing Crescent, 17% visible
Pressure 30.00 in
Visibility 10.0 miles
Clouds Clear
Dew Point 61 °F
Humidity 95%
Rainfall 0.00 in
Snow Depth Not available.
UV 0 out of 12
Pollen 4.30 out of 12
Ozone Good
Flu Activity Not available.
METAR KMOB 310856Z AUTO 33003KT 10SM CLR 18/16 A3001 RMK AO2 SLP159 T01780161 56007

More Conditions Fewer Conditions

Pressure 30.00 in
Visibility 10.0 miles
Clouds Clear
Dew Point 61 °F
Humidity 95%
Rainfall 0.00 in
Snow Depth Not available.
UV 0 out of 12
Pollen 4.30 out of 12
Ozone Good
Flu Activity Not available.
METAR KMOB 310856Z AUTO 33003KT 10SM CLR 18/16 A3001 RMK AO2 SLP159 T01780161 56007

More Conditions Fewer Conditions

10-Day Weather Forecast

Almanac

Astronomy

Jul. 31, 2014 Rise Set
Actual Time 6:09 AM CDT 7:48 PM CDT
Civil Twilight 5:43 AM CDT 8:15 PM CDT
Nautical Twilight 5:11 AM CDT 8:46 PM CDT
Astronomical Twilight 4:38 AM CDT 9:20 PM CDT
Moon 10:15 AM CDT 10:24 PM CDT
Length of Visible Light 14h 32m
Length of Day
13h 39m
Tomorrow will be 1m 23s shorter.
Waxing Crescent, 17% of the Moon is Illuminated
Today
Waxing Crescent
Aug 3
First Quarter
Aug 10
Full
Aug 17
Last Quarter
Aug 25
New

Today's Extremes

State Highs State Lows

Community

WunderPhotos

Upload Photos

1,739,284 photos uploaded!

Nearby

Air Quality

  Air Quality AQ Index Pollutant
Yesterday Good
OZONE
Current Good
OZONE
Thursday Moderate
OZONE

Snow Depth

Station Depth Elevation
No new snow has been reported.

Earthquake Activity

City Distance Mag. Time & Date
No recent earthquake activity has been reported nearby.
Minimum magnitude displayed is 2.5.

Coastal Water Temperatures

Place Temperature
Mobile State Docks, AL 82.9 °F
Coast Guard Sector Mobile, AL 82.9 °F

Nearby Weather Stations

Station Location Temp. Dew Point Humidity Wind Precip. Elev Updated Type
Markwood, Citronelle, AL 64.5 °F 62 °F 90% WSW  at  0.0 mph 0.00 in / hr 308 ft 2:33 AM CDT Normal
The Legends At Magnolia Grove, Mobile, AL 62.2 °F 61 °F 95% NW  at  0.0 mph 0.00 in / hr 171 ft 4:12 AM CDT Rapid Fire

Show More Stations Show Fewer Stations